createdAt,value
2022-09-23T00:01:35.950Z,101457.47
2022-09-23T00:04:04.646Z,101462.34
2022-09-23T00:06:33.008Z,101457.44
2022-09-23T00:09:03.132Z,101457.66
2022-09-23T00:11:33.172Z,101462.28
2022-09-23T00:14:02.631Z,101457.19
2022-09-23T00:16:34.526Z,101454.19
2022-09-23T00:19:05.115Z,101455.53
2022-09-23T00:21:33.635Z,101460.72
2022-09-23T00:24:03.935Z,101462.69
2022-09-23T00:26:32.680Z,101460.94
2022-09-23T00:29:01.229Z,101465.44
2022-09-23T00:31:29.727Z,101464.72
2022-09-23T00:34:00.554Z,101468.50
2022-09-23T00:36:30.559Z,101467.53
2022-09-23T00:38:59.435Z,101460.84
2022-09-23T00:41:29.376Z,101473.97
2022-09-23T00:43:59.741Z,101464.91
2022-09-23T00:46:34.251Z,101463.56
2022-09-23T00:49:07.857Z,101466.44
2022-09-23T00:51:43.715Z,101466.72
2022-09-23T00:54:13.142Z,101453.72
2022-09-23T00:56:44.111Z,101455.50
2022-09-23T00:59:14.224Z,101456.63
2022-09-23T01:01:43.628Z,101461.03
2022-09-23T01:04:12.291Z,101456.22
2022-09-23T01:06:42.020Z,101467.84
2022-09-23T01:09:10.577Z,101462.94
2022-09-23T01:11:50.515Z,101465.78
2022-09-23T01:14:38.559Z,101468.50
2022-09-23T01:17:14.597Z,101474.91
2022-09-23T01:20:17.156Z,101472.47
2022-09-23T01:22:58.482Z,101479.53
2022-09-23T01:25:43.297Z,101480.47
2022-09-23T01:28:33.563Z,101483.22
2022-09-23T01:31:08.381Z,101483.31
2022-09-23T01:33:41.888Z,101482.75
2022-09-23T01:36:20.610Z,101487.47
2022-09-23T01:38:58.565Z,101481.97
2022-09-23T01:41:56.208Z,101487.47
2022-09-23T01:44:35.150Z,101478.31
2022-09-23T01:47:11.259Z,101481.97
2022-09-23T01:49:48.938Z,101479.31
2022-09-23T01:52:26.228Z,101476.78
2022-09-23T01:55:03.278Z,101489.41
2022-09-23T01:57:37.119Z,101479.59
2022-09-23T02:00:11.147Z,101486.56
2022-09-23T02:02:50.055Z,101485.72
2022-09-23T02:05:25.691Z,101483.94
2022-09-23T02:07:59.524Z,101474.44
2022-09-23T02:10:34.295Z,101484.13
2022-09-23T02:13:08.968Z,101481.50
2022-09-23T02:15:43.364Z,101486.09
2022-09-23T02:18:17.553Z,101481.22
2022-09-23T02:20:47.363Z,101483.19
2022-09-23T02:23:20.628Z,101477.91
2022-09-23T02:26:02.588Z,101482.22
2022-09-23T02:28:38.117Z,101480.53
2022-09-23T02:31:12.317Z,101478.84
2022-09-23T02:33:48.036Z,101474.88
2022-09-23T02:36:27.376Z,101482.03
2022-09-23T02:39:00.445Z,101483.72
2022-09-23T02:41:34.858Z,101487.31
2022-09-23T02:44:09.321Z,101481.94
2022-09-23T02:46:38.662Z,101491.69
2022-09-23T02:49:14.209Z,101483.22
2022-09-23T02:51:43.627Z,101482.47
2022-09-23T02:54:16.149Z,101482.75
2022-09-23T02:56:44.988Z,101484.44
2022-09-23T02:59:17.447Z,101488.84
2022-09-23T03:01:56.619Z,101486.50
2022-09-23T03:04:36.761Z,101485.53
2022-09-23T03:07:16.493Z,101487.34
2022-09-23T03:09:55.373Z,101488.38
2022-09-23T03:12:36.444Z,101486.50
2022-09-23T03:15:20.478Z,101484.81
2022-09-23T03:17:57.944Z,101484.81
2022-09-23T03:20:34.792Z,101490.13
2022-09-23T03:23:07.328Z,101491.19
2022-09-23T03:25:40.314Z,101492.13
2022-09-23T03:28:09.666Z,101485.81
2022-09-23T03:30:39.361Z,101484.13
2022-09-23T03:33:12.382Z,101490.34
2022-09-23T03:36:07.423Z,101490.25
2022-09-23T03:38:43.049Z,101496.44
2022-09-23T03:41:18.243Z,101496.56
2022-09-23T03:43:47.943Z,101492.13
2022-09-23T03:46:17.122Z,101489.66
2022-09-23T03:48:45.954Z,101489.66
2022-09-23T03:51:21.581Z,101488.72
2022-09-23T03:53:50.212Z,101487.97
2022-09-23T03:56:18.848Z,101493.13
2022-09-23T03:58:48.993Z,101487.03
2022-09-23T04:01:17.676Z,101486.06
2022-09-23T04:03:46.215Z,101487.97
2022-09-23T04:06:14.787Z,101483.53
2022-09-23T04:08:44.563Z,101491.34
2022-09-23T04:11:13.234Z,101494.94
2022-09-23T04:13:42.185Z,101487.69
2022-09-23T04:16:11.094Z,101497.56
2022-09-23T04:18:39.746Z,101499.47
2022-09-23T04:21:08.601Z,101505.56
2022-09-23T04:23:37.413Z,101508.28
2022-09-23T04:26:07.695Z,101506.47
2022-09-23T04:28:36.465Z,101506.47
2022-09-23T04:31:05.901Z,101502.16
2022-09-23T04:33:34.757Z,101510.75
2022-09-23T04:36:03.690Z,101507.38
2022-09-23T04:38:32.493Z,101511.09
2022-09-23T04:41:00.988Z,101507.63
2022-09-23T04:43:31.290Z,101513.75
2022-09-23T04:46:01.082Z,101516.38
2022-09-23T04:48:30.405Z,101510.44
2022-09-23T04:51:04.939Z,101522.75
2022-09-23T04:53:33.976Z,101517.56
2022-09-23T04:56:03.392Z,101514.28
2022-09-23T04:58:34.328Z,101517.75
2022-09-23T05:01:10.779Z,101522.91
2022-09-23T05:03:39.802Z,101521.41
2022-09-23T05:06:09.363Z,101522.25
2022-09-23T05:08:38.383Z,101525.06
2022-09-23T05:11:07.480Z,101521.59
2022-09-23T05:13:37.339Z,101528.63
2022-09-23T05:16:08.504Z,101531.09
2022-09-23T05:18:42.909Z,101532.03
2022-09-23T05:21:12.646Z,101529.22
2022-09-23T05:23:42.164Z,101530.34
2022-09-23T05:26:12.599Z,101523.28
2022-09-23T05:28:44.244Z,101529.66
2022-09-23T05:31:19.773Z,101526.91
2022-09-23T05:33:52.792Z,101527.88
2022-09-23T05:36:23.240Z,101531.34
2022-09-23T05:38:52.859Z,101536.63
2022-09-23T05:41:23.358Z,101535.88
2022-09-23T05:43:58.260Z,101545.47
2022-09-23T05:46:28.585Z,101543.00
2022-09-23T05:49:02.671Z,101541.19
2022-09-23T05:51:33.235Z,101545.81
2022-09-23T05:54:04.555Z,101544.88
2022-09-23T05:56:34.942Z,101549.56
2022-09-23T05:59:06.588Z,101548.50
2022-09-23T06:01:38.720Z,101542.31
2022-09-23T06:04:09.053Z,101547.66
2022-09-23T06:06:39.313Z,101553.78
2022-09-23T06:09:10.241Z,101547.81
2022-09-23T06:11:39.022Z,101557.47
2022-09-23T06:14:12.416Z,101553.78
2022-09-23T06:16:41.198Z,101558.56
2022-09-23T06:19:10.802Z,101561.09
2022-09-23T06:21:42.128Z,101565.53
2022-09-23T06:24:17.732Z,101561.00
2022-09-23T06:26:49.368Z,101563.56
2022-09-23T06:29:19.866Z,101568.59
2022-09-23T06:31:50.779Z,101570.44
2022-09-23T06:34:20.246Z,101565.84
2022-09-23T06:36:48.839Z,101570.97
2022-09-23T06:39:17.870Z,101576.97
2022-09-23T06:41:47.096Z,101572.41
2022-09-23T06:44:15.841Z,101574.94
2022-09-23T06:46:46.296Z,101584.56
2022-09-23T06:49:14.621Z,101579.94
2022-09-23T06:51:43.072Z,101580.72
2022-09-23T06:54:12.122Z,101585.75
2022-09-23T06:56:41.096Z,101587.09
2022-09-23T06:59:13.272Z,101589.97
2022-09-23T07:01:42.162Z,101594.91
2022-09-23T07:04:12.188Z,101591.16
2022-09-23T07:06:41.243Z,101586.63
2022-09-23T07:09:11.217Z,101595.75
2022-09-23T07:11:40.006Z,101594.78
2022-09-23T07:14:08.454Z,101596.25
2022-09-23T07:16:36.734Z,101605.28
2022-09-23T07:19:05.103Z,101601.44
2022-09-23T07:21:36.044Z,101612.34
2022-09-23T07:24:05.320Z,101606.88
2022-09-23T07:26:34.321Z,101607.31
2022-09-23T07:29:05.299Z,101610.81
2022-09-23T07:31:39.594Z,101615.31
2022-09-23T07:34:10.112Z,101614.97
2022-09-23T07:36:41.878Z,101611.56
2022-09-23T07:39:13.066Z,101607.72
2022-09-23T07:41:44.964Z,101613.88
2022-09-23T07:44:13.657Z,101609.19
2022-09-23T07:46:42.751Z,101623.47
2022-09-23T07:49:12.078Z,101612.66
2022-09-23T07:51:46.709Z,101614.19
2022-09-23T07:54:19.248Z,101617.03
2022-09-23T07:56:48.953Z,101612.97
2022-09-23T07:59:20.245Z,101620.25
2022-09-23T08:01:50.943Z,101619.72
2022-09-23T08:04:23.651Z,101615.59
2022-09-23T08:06:54.981Z,101619.88
2022-09-23T08:09:25.979Z,101625.25
2022-09-23T08:11:56.184Z,101622.28
2022-09-23T08:14:24.852Z,101624.47
2022-09-23T08:16:53.831Z,101612.63
2022-09-23T08:19:22.589Z,101632.31
2022-09-23T08:21:54.757Z,101625.81
2022-09-23T08:24:24.854Z,101622.13
2022-09-23T08:26:56.326Z,101626.16
2022-09-23T08:29:28.276Z,101621.38
2022-09-23T08:32:00.049Z,101624.44
2022-09-23T08:34:29.739Z,101625.00
2022-09-23T08:36:59.555Z,101627.38
2022-09-23T08:39:28.650Z,101627.66
2022-09-23T08:42:10.863Z,101635.19
2022-09-23T08:44:47.361Z,101641.03
2022-09-23T08:47:28.207Z,101635.31
2022-09-23T08:50:06.862Z,101631.81
2022-09-23T08:52:44.321Z,101641.88
2022-09-23T08:55:15.125Z,101633.94
2022-09-23T08:58:24.081Z,101639.13
2022-09-23T09:01:00.302Z,101634.75
2022-09-23T09:03:35.542Z,101632.38
2022-09-23T09:06:04.891Z,101639.50
2022-09-23T09:08:38.701Z,101638.72
2022-09-23T09:11:08.350Z,101636.59
2022-09-23T09:13:48.907Z,101640.63
2022-09-23T09:16:55.360Z,101634.91
2022-09-23T09:19:22.735Z,101637.34
2022-09-23T09:21:55.737Z,101638.75
2022-09-23T09:24:34.269Z,101641.13
2022-09-23T09:27:05.555Z,101639.72
2022-09-23T09:29:39.694Z,101635.34
2022-09-23T09:32:21.486Z,101647.06
2022-09-23T09:34:54.848Z,101637.13
2022-09-23T09:37:34.567Z,101642.47
2022-09-23T09:40:05.469Z,101635.59
2022-09-23T09:42:42.715Z,101642.47
2022-09-23T09:45:24.666Z,101635.09
2022-09-23T09:48:06.070Z,101638.16
2022-09-23T09:50:47.904Z,101632.72
2022-09-23T09:53:22.915Z,101632.03
2022-09-23T09:56:06.211Z,101643.22
2022-09-23T09:58:44.164Z,101633.72
2022-09-23T10:01:22.019Z,101625.03
2022-09-23T10:03:59.176Z,101623.91
2022-09-23T10:06:30.176Z,101622.63
2022-09-23T10:09:15.146Z,101624.31
2022-09-23T10:12:05.632Z,101625.81
2022-09-23T10:14:36.538Z,101623.13
2022-09-23T10:17:07.947Z,101619.38
2022-09-23T10:19:45.814Z,101622.91
2022-09-23T10:22:25.636Z,101619.13
2022-09-23T10:25:03.624Z,101610.22
2022-09-23T10:27:39.329Z,101609.38
2022-09-23T10:30:23.259Z,101604.31
2022-09-23T10:32:56.179Z,101600.59
2022-09-23T10:35:28.531Z,101596.25
2022-09-23T10:37:59.313Z,101595.91
2022-09-23T10:40:51.217Z,101591.06
2022-09-23T10:43:51.633Z,101588.53
2022-09-23T10:46:42.518Z,101588.81
2022-09-23T10:49:38.167Z,101589.09
2022-09-23T10:52:24.948Z,101587.16
2022-09-23T10:55:06.612Z,101583.72
2022-09-23T10:57:47.817Z,101577.97
2022-09-23T11:00:23.763Z,101566.56
2022-09-23T11:03:25.144Z,101562.22
2022-09-23T11:06:08.177Z,101557.50
2022-09-23T11:08:54.952Z,101548.72
2022-09-23T11:11:35.215Z,101547.59
2022-09-23T11:14:18.752Z,101552.53
2022-09-23T11:17:06.049Z,101547.31
2022-09-23T11:20:13.337Z,101542.66
2022-09-23T11:23:00.099Z,101540.97
2022-09-23T11:25:36.482Z,101525.22
2022-09-23T11:28:24.134Z,101525.41
2022-09-23T11:31:02.328Z,101508.19
2022-09-23T11:33:45.584Z,101499.25
2022-09-23T11:36:26.930Z,101483.44
2022-09-23T11:38:57.664Z,101472.13
2022-09-23T11:41:31.658Z,101471.84
2022-09-23T11:44:04.921Z,101457.88
2022-09-23T11:46:44.572Z,101468.31
2022-09-23T11:49:20.844Z,101456.81
2022-09-23T11:52:03.902Z,101453.16
2022-09-23T11:54:43.441Z,101440.94
2022-09-23T11:57:20.874Z,101444.72
2022-09-23T12:00:01.562Z,101435.88
2022-09-23T12:02:49.944Z,101423.44
2022-09-23T12:05:32.293Z,101421.63
2022-09-23T12:08:06.769Z,101422.81
2022-09-23T12:10:46.296Z,101434.25
2022-09-23T12:13:22.333Z,101446.41
2022-09-23T12:16:06.744Z,101437.59
2022-09-23T12:18:51.368Z,101431.59
2022-09-23T12:21:51.629Z,101434.44
2022-09-23T12:24:36.704Z,101420.16
2022-09-23T12:27:11.235Z,101425.91
2022-09-23T12:29:42.042Z,101415.25
2022-09-23T12:32:19.281Z,101415.75
2022-09-23T12:34:52.126Z,101416.03
2022-09-23T12:37:29.094Z,101407.28
2022-09-23T12:40:09.668Z,101405.19
2022-09-23T12:42:46.195Z,101412.13
2022-09-23T12:45:21.305Z,101403.53
2022-09-23T12:47:49.544Z,101401.00
2022-09-23T12:50:53.474Z,101396.81
2022-09-23T12:53:57.303Z,101393.00
2022-09-23T12:56:31.723Z,101386.50
2022-09-23T12:59:14.237Z,101386.16
2022-09-23T13:01:43.766Z,101386.63
2022-09-23T13:04:49.132Z,101382.47
2022-09-23T13:07:20.596Z,101393.03
2022-09-23T13:09:52.632Z,101390.81
2022-09-23T13:12:28.258Z,101407.91
2022-09-23T13:15:00.963Z,101399.88
2022-09-23T13:17:34.744Z,101406.44
2022-09-23T13:20:07.790Z,101398.81
2022-09-23T13:22:59.398Z,101402.19
2022-09-23T13:25:30.346Z,101397.69
2022-09-23T13:28:04.140Z,101392.50
2022-09-23T13:30:33.857Z,101384.88
2022-09-23T13:33:11.141Z,101383.69
2022-09-23T13:35:43.944Z,101374.72
2022-09-23T13:38:13.761Z,101371.59
2022-09-23T13:40:46.034Z,101367.88
2022-09-23T13:43:22.220Z,101368.75
2022-09-23T13:45:52.716Z,101366.16
2022-09-23T13:48:25.347Z,101368.44
2022-09-23T13:51:10.853Z,101374.28
2022-09-23T13:53:39.970Z,101375.13
2022-09-23T13:56:13.941Z,101368.81
2022-09-23T13:58:44.886Z,101365.56
2022-09-23T14:01:24.507Z,101371.91
2022-09-23T14:03:53.230Z,101361.47
2022-09-23T14:06:22.053Z,101360.72
2022-09-23T14:08:52.739Z,101359.34
2022-09-23T14:11:23.911Z,101362.16
2022-09-23T14:13:55.232Z,101342.78
2022-09-23T14:16:27.441Z,101343.59
2022-09-23T14:18:59.810Z,101336.81
2022-09-23T14:21:35.202Z,101345.63
2022-09-23T14:24:25.999Z,101336.09
2022-09-23T14:26:58.086Z,101339.00
2022-09-23T14:29:32.387Z,101328.75
2022-09-23T14:32:04.606Z,101322.28
2022-09-23T14:34:51.165Z,101320.72
2022-09-23T14:37:45.385Z,101312.25
2022-09-23T14:40:19.143Z,101299.16
2022-09-23T14:42:52.232Z,101294.88
2022-09-23T14:45:31.337Z,101299.53
2022-09-23T14:48:02.473Z,101312.50
2022-09-23T14:50:40.095Z,101330.22
2022-09-23T14:53:40.625Z,101356.06
2022-09-23T14:56:14.437Z,101373.75
2022-09-23T14:58:52.074Z,101404.84
2022-09-23T15:01:42.210Z,101442.63
2022-09-23T15:04:17.464Z,101471.75
2022-09-23T15:06:54.389Z,101471.28
2022-09-23T15:09:26.785Z,101493.09
2022-09-23T15:12:01.120Z,101491.91
2022-09-23T15:14:39.269Z,101487.53
2022-09-23T15:17:26.600Z,101483.44
2022-09-23T15:19:58.039Z,101485.63
2022-09-23T15:22:26.721Z,101481.16
2022-09-23T15:25:16.482Z,101479.38
2022-09-23T15:27:59.199Z,101486.09
2022-09-23T15:30:28.302Z,101490.47
2022-09-23T15:32:58.317Z,101489.25
2022-09-23T15:35:28.483Z,101482.63
2022-09-23T15:38:00.562Z,101485.63
2022-09-23T15:40:37.135Z,101483.22
2022-09-23T15:43:20.668Z,101488.31
2022-09-23T15:45:52.453Z,101480.19
2022-09-23T15:48:25.549Z,101478.88
2022-09-23T15:50:55.922Z,101467.53
2022-09-23T15:53:27.941Z,101464.66
2022-09-23T15:55:58.958Z,101470.72
2022-09-23T15:58:28.404Z,101474.00
2022-09-23T16:00:58.581Z,101471.69
2022-09-23T16:03:30.195Z,101480.25
2022-09-23T16:06:01.860Z,101475.78
2022-09-23T16:08:33.408Z,101476.63
2022-09-23T16:11:02.259Z,101493.16
2022-09-23T16:13:32.048Z,101497.19
2022-09-23T16:16:00.503Z,101497.47
2022-09-23T16:18:31.574Z,101489.63
2022-09-23T16:21:00.289Z,101493.63
2022-09-23T16:23:38.936Z,101485.16
2022-09-23T16:26:10.229Z,101491.44
2022-09-23T16:28:38.643Z,101491.81
2022-09-23T16:31:07.125Z,101486.13
2022-09-23T16:33:37.268Z,101492.28
2022-09-23T16:36:10.934Z,101493.97
2022-09-23T16:38:39.810Z,101502.28
2022-09-23T16:41:09.572Z,101500.13
2022-09-23T16:43:41.222Z,101502.28
2022-09-23T16:46:12.418Z,101497.59
2022-09-23T16:48:48.310Z,101505.31
2022-09-23T16:51:21.894Z,101499.63
2022-09-23T16:53:51.796Z,101498.31
2022-09-23T16:56:28.002Z,101499.03
2022-09-23T16:58:57.289Z,101504.25
2022-09-23T17:01:44.310Z,101504.94
2022-09-23T17:04:16.060Z,101502.06
2022-09-23T17:06:48.480Z,101503.88
2022-09-23T17:09:18.859Z,101499.53
2022-09-23T17:11:48.551Z,101504.59
2022-09-23T17:14:17.885Z,101497.00
2022-09-23T17:16:46.293Z,101500.63
2022-09-23T17:19:27.900Z,101502.78
2022-09-23T17:21:56.552Z,101509.44
2022-09-23T17:24:25.123Z,101513.50
2022-09-23T17:26:53.663Z,101510.97
2022-09-23T17:29:21.993Z,101512.53
2022-09-23T17:31:50.533Z,101512.28
2022-09-23T17:34:20.672Z,101518.94
2022-09-23T17:36:49.920Z,101517.75
2022-09-23T17:39:18.788Z,101518.19
2022-09-23T17:41:47.449Z,101520.97
2022-09-23T17:44:17.737Z,101524.34
2022-09-23T17:46:47.771Z,101523.00
2022-09-23T17:49:17.877Z,101523.75
2022-09-23T17:51:47.964Z,101528.81
2022-09-23T17:54:16.782Z,101531.38
2022-09-23T17:56:45.269Z,101534.03
2022-09-23T17:59:14.355Z,101531.59
2022-09-23T18:01:42.745Z,101530.75
2022-09-23T18:04:14.156Z,101533.75
2022-09-23T18:06:44.806Z,101535.16
2022-09-23T18:09:17.684Z,101537.47
2022-09-23T18:11:49.385Z,101533.56
2022-09-23T18:14:20.977Z,101544.94
2022-09-23T18:16:54.305Z,101545.16
2022-09-23T18:19:24.591Z,101539.72
2022-09-23T18:21:56.236Z,101557.44
2022-09-23T18:24:34.090Z,101551.53
2022-09-23T18:27:02.874Z,101564.69
2022-09-23T18:29:31.703Z,101561.41
2022-09-23T18:32:00.563Z,101570.81
2022-09-23T18:34:30.280Z,101569.44
2022-09-23T18:36:58.925Z,101577.47
2022-09-23T18:39:30.107Z,101580.47
2022-09-23T18:41:58.595Z,101576.81
2022-09-23T18:44:27.054Z,101582.44
2022-09-23T18:46:55.471Z,101586.28
2022-09-23T18:49:41.284Z,101577.47
2022-09-23T18:52:10.400Z,101575.38
2022-09-23T18:54:40.542Z,101580.66
2022-09-23T18:57:10.040Z,101574.41
2022-09-23T18:59:38.395Z,101577.38
2022-09-23T19:02:06.922Z,101578.22
2022-09-23T19:04:35.420Z,101579.81
2022-09-23T19:07:04.511Z,101577.38
2022-09-23T19:09:33.625Z,101583.88
2022-09-23T19:12:04.141Z,101595.22
2022-09-23T19:14:33.261Z,101585.97
2022-09-23T19:17:01.681Z,101582.47
2022-09-23T19:19:31.995Z,101590.31
2022-09-23T19:22:00.891Z,101597.22
2022-09-23T19:24:29.423Z,101591.06
2022-09-23T19:26:58.243Z,101595.72
2022-09-23T19:29:28.806Z,101591.59
2022-09-23T19:31:59.331Z,101590.75
2022-09-23T19:34:29.642Z,101603.59
2022-09-23T19:36:59.414Z,101602.16
2022-09-23T19:39:32.038Z,101596.59
2022-09-23T19:42:02.346Z,101600.34
2022-09-23T19:44:32.253Z,101597.34
2022-09-23T19:47:00.744Z,101594.28
2022-09-23T19:49:30.262Z,101598.00
2022-09-23T19:51:58.510Z,101604.16
2022-09-23T19:54:27.756Z,101602.34
2022-09-23T19:56:56.970Z,101604.38
2022-09-23T19:59:26.674Z,101605.97
2022-09-23T20:01:56.985Z,101603.72
2022-09-23T20:04:26.518Z,101605.22
2022-09-23T20:06:55.401Z,101604.56
2022-09-23T20:09:24.006Z,101605.22
2022-09-23T20:11:52.318Z,101607.47
2022-09-23T20:14:20.990Z,101613.94
2022-09-23T20:16:49.573Z,101604.38
2022-09-23T20:19:20.287Z,101606.19
2022-09-23T20:22:09.630Z,101612.75
2022-09-23T20:24:38.878Z,101616.78
2022-09-23T20:27:09.012Z,101613.94
2022-09-23T20:29:40.409Z,101609.69
2022-09-23T20:32:09.936Z,101614.25
2022-09-23T20:34:41.547Z,101613.28
2022-09-23T20:37:11.191Z,101613.72
2022-09-23T20:39:39.792Z,101616.91
2022-09-23T20:42:09.755Z,101613.09
2022-09-23T20:44:38.307Z,101610.00
2022-09-23T20:47:07.546Z,101605.47
2022-09-23T20:49:36.949Z,101617.03
2022-09-23T20:52:06.765Z,101617.09
2022-09-23T20:54:39.114Z,101612.25
2022-09-23T20:57:07.833Z,101616.19
2022-09-23T20:59:36.376Z,101617.97
2022-09-23T21:02:05.816Z,101618.63
2022-09-23T21:04:35.357Z,101626.63
2022-09-23T21:07:03.654Z,101628.38
2022-09-23T21:09:33.286Z,101625.81
2022-09-23T21:12:01.896Z,101621.34
2022-09-23T21:14:33.639Z,101621.22
2022-09-23T21:17:02.104Z,101625.28
2022-09-23T21:19:31.513Z,101627.63
2022-09-23T21:21:59.874Z,101633.31
2022-09-23T21:27:19.352Z,101635.28
2022-09-23T21:29:47.875Z,101637.28
2022-09-23T21:32:16.398Z,101633.31
2022-09-23T21:34:44.959Z,101643.28
2022-09-23T21:37:14.380Z,101637.81
2022-09-23T21:40:02.650Z,101646.16
2022-09-23T21:42:32.564Z,101638.41
2022-09-23T21:45:00.917Z,101636.72
2022-09-23T21:47:29.606Z,101638.81
2022-09-23T21:49:57.993Z,101640.91
2022-09-23T21:52:26.780Z,101639.38
2022-09-23T21:54:55.585Z,101632.31
2022-09-23T21:57:26.272Z,101639.75
2022-09-23T21:59:56.323Z,101638.47
2022-09-23T22:02:25.051Z,101645.72
2022-09-23T22:04:53.524Z,101638.94
2022-09-23T22:07:23.426Z,101640.91
2022-09-23T22:09:51.923Z,101641.84
2022-09-23T22:12:20.674Z,101640.28
2022-09-23T22:14:49.609Z,101634.16
2022-09-23T22:17:19.752Z,101641.59
2022-09-23T22:19:49.049Z,101640.75
2022-09-23T22:22:19.850Z,101639.22
2022-09-23T22:24:49.360Z,101643.94
2022-09-23T22:27:20.707Z,101638.94
2022-09-23T22:30:07.133Z,101644.41
2022-09-23T22:32:43.802Z,101641.03
2022-09-23T22:35:16.750Z,101637.72
2022-09-23T22:37:45.963Z,101647.53
2022-09-23T22:40:16.860Z,101647.88
2022-09-23T22:42:45.935Z,101654.13
2022-09-23T22:45:15.024Z,101661.28
2022-09-23T22:47:46.197Z,101658.16
2022-09-23T22:50:15.671Z,101658.22
2022-09-23T22:52:45.217Z,101661.22
2022-09-23T22:55:15.736Z,101668.38
2022-09-23T22:57:44.560Z,101671.28
2022-09-23T23:00:14.364Z,101675.06
2022-09-23T23:02:43.081Z,101669.88
2022-09-23T23:05:15.013Z,101675.59
2022-09-23T23:07:50.439Z,101672.69
2022-09-23T23:10:19.652Z,101666.81
2022-09-23T23:12:49.342Z,101674.16
2022-09-23T23:15:18.314Z,101666.34
2022-09-23T23:17:47.295Z,101672.22
2022-09-23T23:20:20.293Z,101669.63
2022-09-23T23:22:50.910Z,101668.44
2022-09-23T23:25:19.416Z,101667.00
2022-09-23T23:27:47.974Z,101670.47
2022-09-23T23:30:16.921Z,101660.97
2022-09-23T23:32:45.389Z,101668.63
2022-09-23T23:35:17.797Z,101661.91
2022-09-23T23:37:46.243Z,101662.25
2022-09-23T23:40:23.085Z,101659.97
2022-09-23T23:42:51.879Z,101659.88
2022-09-23T23:45:20.624Z,101657.06
2022-09-23T23:47:49.603Z,101663.47
2022-09-23T23:50:19.934Z,101664.31
2022-09-23T23:52:49.768Z,101659.22
2022-09-23T23:55:18.806Z,101665.53
2022-09-23T23:57:47.593Z,101667.22
